sensor_id;sensor_type;location;lat;lon;timestamp;temperature;humidity
935;DHT22;454;53.254;10.400;2022-08-19T04:02:14;19.10;99.90
935;DHT22;454;53.254;10.400;2022-08-19T04:04:43;19.10;99.90
935;DHT22;454;53.254;10.400;2022-08-19T04:07:11;19.10;99.90
935;DHT22;454;53.254;10.400;2022-08-19T04:09:40;19.10;99.90
935;DHT22;454;53.254;10.400;2022-08-19T04:12:07;19.10;99.90
935;DHT22;454;53.254;10.400;2022-08-19T04:14:34;19.10;99.90
935;DHT22;454;53.254;10.400;2022-08-19T04:17:02;19.10;99.90
935;DHT22;454;53.254;10.400;2022-08-19T04:19:32;19.10;99.90
935;DHT22;454;53.254;10.400;2022-08-19T04:21:59;19.00;99.90
935;DHT22;454;53.254;10.400;2022-08-19T04:24:25;19.00;99.90
935;DHT22;454;53.254;10.400;2022-08-19T04:26:53;19.00;99.90
935;DHT22;454;53.254;10.400;2022-08-19T04:29:23;19.00;99.90
935;DHT22;454;53.254;10.400;2022-08-19T04:31:53;19.00;99.90
935;DHT22;454;53.254;10.400;2022-08-19T04:34:23;19.00;99.90
935;DHT22;454;53.254;10.400;2022-08-19T04:36:52;19.10;99.90
935;DHT22;454;53.254;10.400;2022-08-19T04:39:21;19.00;99.90
935;DHT22;454;53.254;10.400;2022-08-19T04:41:48;19.10;99.90
935;DHT22;454;53.254;10.400;2022-08-19T04:44:33;19.10;99.90
935;DHT22;454;53.254;10.400;2022-08-19T04:47:00;19.10;99.90
935;DHT22;454;53.254;10.400;2022-08-19T04:49:31;19.10;99.90
935;DHT22;454;53.254;10.400;2022-08-19T04:51:59;19.10;99.90
935;DHT22;454;53.254;10.400;2022-08-19T04:54:26;19.10;99.90
935;DHT22;454;53.254;10.400;2022-08-19T04:56:53;19.10;99.90
935;DHT22;454;53.254;10.400;2022-08-19T04:59:20;19.10;99.90
935;DHT22;454;53.254;10.400;2022-08-19T05:01:47;19.10;99.90
935;DHT22;454;53.254;10.400;2022-08-19T05:04:16;19.10;99.90
935;DHT22;454;53.254;10.400;2022-08-19T05:06:45;19.00;99.90
935;DHT22;454;53.254;10.400;2022-08-19T05:09:14;19.00;99.90
935;DHT22;454;53.254;10.400;2022-08-19T05:11:42;19.00;99.90
935;DHT22;454;53.254;10.400;2022-08-19T05:14:10;19.00;99.90
935;DHT22;454;53.254;10.400;2022-08-19T05:16:38;19.00;99.90
935;DHT22;454;53.254;10.400;2022-08-19T05:19:05;19.00;99.90
935;DHT22;454;53.254;10.400;2022-08-19T05:21:49;19.10;99.90
935;DHT22;454;53.254;10.400;2022-08-19T05:24:36;19.10;99.90
935;DHT22;454;53.254;10.400;2022-08-19T05:27:03;19.00;99.90
935;DHT22;454;53.254;10.400;2022-08-19T05:29:31;19.00;99.90
935;DHT22;454;53.254;10.400;2022-08-19T05:32:00;19.10;99.90
935;DHT22;454;53.254;10.400;2022-08-19T05:34:27;19.10;99.90
935;DHT22;454;53.254;10.400;2022-08-19T05:36:56;19.10;99.90
935;DHT22;454;53.254;10.400;2022-08-19T05:39:25;19.10;99.90
935;DHT22;454;53.254;10.400;2022-08-19T05:41:57;19.10;99.90
935;DHT22;454;53.254;10.400;2022-08-19T05:44:24;19.10;99.90
935;DHT22;454;53.254;10.400;2022-08-19T05:46:51;19.10;99.90
935;DHT22;454;53.254;10.400;2022-08-19T05:49:22;19.10;99.90
935;DHT22;454;53.254;10.400;2022-08-19T05:51:49;19.10;99.90
935;DHT22;454;53.254;10.400;2022-08-19T05:54:16;19.10;99.90
935;DHT22;454;53.254;10.400;2022-08-19T05:56:44;19.20;99.90
935;DHT22;454;53.254;10.400;2022-08-19T05:59:16;19.20;99.90
935;DHT22;454;53.254;10.400;2022-08-19T06:01:44;19.30;99.90
935;DHT22;454;53.254;10.400;2022-08-19T06:04:11;19.30;99.90
935;DHT22;454;53.254;10.400;2022-08-19T06:06:39;19.30;99.90
935;DHT22;454;53.254;10.400;2022-08-19T06:09:07;19.30;99.90
935;DHT22;454;53.254;10.400;2022-08-19T06:11:37;19.30;99.90
935;DHT22;454;53.254;10.400;2022-08-19T06:14:07;19.30;99.90
935;DHT22;454;53.254;10.400;2022-08-19T06:16:36;19.40;99.90
935;DHT22;454;53.254;10.400;2022-08-19T06:19:05;19.30;99.90
935;DHT22;454;53.254;10.400;2022-08-19T06:21:34;19.40;99.90
935;DHT22;454;53.254;10.400;2022-08-19T06:24:03;19.40;99.90
935;DHT22;454;53.254;10.400;2022-08-19T06:26:30;19.50;99.90
935;DHT22;454;53.254;10.400;2022-08-19T06:28:57;19.40;99.90
935;DHT22;454;53.254;10.400;2022-08-19T06:31:27;19.50;99.90
935;DHT22;454;53.254;10.400;2022-08-19T06:33:55;19.50;99.90
935;DHT22;454;53.254;10.400;2022-08-19T06:36:26;19.50;99.90
935;DHT22;454;53.254;10.400;2022-08-19T06:38:57;19.50;99.90
935;DHT22;454;53.254;10.400;2022-08-19T06:41:24;19.60;99.90
935;DHT22;454;53.254;10.400;2022-08-19T06:43:51;19.50;99.90
935;DHT22;454;53.254;10.400;2022-08-19T06:46:18;19.40;99.90
935;DHT22;454;53.254;10.400;2022-08-19T06:48:46;19.40;99.90
935;DHT22;454;53.254;10.400;2022-08-19T06:51:14;19.40;99.90
935;DHT22;454;53.254;10.400;2022-08-19T06:53:44;19.40;99.90
935;DHT22;454;53.254;10.400;2022-08-19T06:56:12;19.40;99.90
935;DHT22;454;53.254;10.400;2022-08-19T06:58:39;19.40;99.90
935;DHT22;454;53.254;10.400;2022-08-19T07:01:06;19.30;99.90
935;DHT22;454;53.254;10.400;2022-08-19T07:03:35;19.40;99.90
935;DHT22;454;53.254;10.400;2022-08-19T07:06:03;19.30;99.90
935;DHT22;454;53.254;10.400;2022-08-19T07:08:32;19.30;99.90
935;DHT22;454;53.254;10.400;2022-08-19T07:10:59;19.20;99.90
935;DHT22;454;53.254;10.400;2022-08-19T07:13:26;19.20;99.90
935;DHT22;454;53.254;10.400;2022-08-19T07:15:53;19.20;99.90
935;DHT22;454;53.254;10.400;2022-08-19T07:18:20;19.20;99.90
935;DHT22;454;53.254;10.400;2022-08-19T07:20:47;19.20;99.90
935;DHT22;454;53.254;10.400;2022-08-19T07:23:14;19.20;99.90
935;DHT22;454;53.254;10.400;2022-08-19T07:25:42;19.20;99.90
935;DHT22;454;53.254;10.400;2022-08-19T07:28:09;19.20;99.90
935;DHT22;454;53.254;10.400;2022-08-19T07:30:37;19.20;99.90
935;DHT22;454;53.254;10.400;2022-08-19T07:33:04;19.20;99.90
935;DHT22;454;53.254;10.400;2022-08-19T07:35:30;19.30;99.90
935;DHT22;454;53.254;10.400;2022-08-19T07:37:59;19.30;99.90
935;DHT22;454;53.254;10.400;2022-08-19T07:40:28;19.30;99.90
935;DHT22;454;53.254;10.400;2022-08-19T07:42:56;19.40;99.90
935;DHT22;454;53.254;10.400;2022-08-19T07:45:24;19.30;99.90
935;DHT22;454;53.254;10.400;2022-08-19T07:47:52;19.40;99.90
935;DHT22;454;53.254;10.400;2022-08-19T07:50:20;19.40;99.90
935;DHT22;454;53.254;10.400;2022-08-19T07:52:47;19.40;99.90
935;DHT22;454;53.254;10.400;2022-08-19T07:55:16;19.40;99.90
935;DHT22;454;53.254;10.400;2022-08-19T07:57:43;19.40;99.90
935;DHT22;454;53.254;10.400;2022-08-19T08:00:13;19.40;99.90
935;DHT22;454;53.254;10.400;2022-08-19T08:02:40;19.40;99.90
935;DHT22;454;53.254;10.400;2022-08-19T08:05:08;19.30;99.90
935;DHT22;454;53.254;10.400;2022-08-19T08:07:52;19.30;99.90
935;DHT22;454;53.254;10.400;2022-08-19T08:10:36;19.30;99.90
935;DHT22;454;53.254;10.400;2022-08-19T08:13:03;19.30;99.90
935;DHT22;454;53.254;10.400;2022-08-19T08:15:32;19.30;99.90
935;DHT22;454;53.254;10.400;2022-08-19T08:17:59;19.30;99.90
935;DHT22;454;53.254;10.400;2022-08-19T08:20:26;19.30;99.90
935;DHT22;454;53.254;10.400;2022-08-19T08:22:52;19.40;99.90
935;DHT22;454;53.254;10.400;2022-08-19T08:25:37;19.40;99.90
935;DHT22;454;53.254;10.400;2022-08-19T08:28:04;19.40;99.90
935;DHT22;454;53.254;10.400;2022-08-19T08:30:34;19.40;99.90
935;DHT22;454;53.254;10.400;2022-08-19T08:33:02;19.40;99.90
935;DHT22;454;53.254;10.400;2022-08-19T08:35:29;19.40;99.90
935;DHT22;454;53.254;10.400;2022-08-19T08:37:56;19.40;99.90
935;DHT22;454;53.254;10.400;2022-08-19T08:40:44;19.40;99.90
935;DHT22;454;53.254;10.400;2022-08-19T08:43:18;19.40;99.90
935;DHT22;454;53.254;10.400;2022-08-19T08:45:51;19.30;99.90
935;DHT22;454;53.254;10.400;2022-08-19T08:48:22;19.40;99.90
935;DHT22;454;53.254;10.400;2022-08-19T08:50:51;19.40;99.90
935;DHT22;454;53.254;10.400;2022-08-19T08:53:20;19.30;99.90
935;DHT22;454;53.254;10.400;2022-08-19T08:55:48;19.30;99.90
935;DHT22;454;53.254;10.400;2022-08-19T08:58:17;19.30;99.90
935;DHT22;454;53.254;10.400;2022-08-19T09:00:48;19.30;99.90
935;DHT22;454;53.254;10.400;2022-08-19T09:03:18;19.30;99.90
935;DHT22;454;53.254;10.400;2022-08-19T09:05:52;19.30;99.90
935;DHT22;454;53.254;10.400;2022-08-19T09:08:28;19.30;99.90
935;DHT22;454;53.254;10.400;2022-08-19T09:11:00;19.30;99.90
935;DHT22;454;53.254;10.400;2022-08-19T09:13:37;19.30;99.90
935;DHT22;454;53.254;10.400;2022-08-19T09:16:12;19.30;99.90
935;DHT22;454;53.254;10.400;2022-08-19T09:18:43;19.30;99.90
935;DHT22;454;53.254;10.400;2022-08-19T09:21:12;19.30;99.90
935;DHT22;454;53.254;10.400;2022-08-19T09:23:39;19.20;99.90
935;DHT22;454;53.254;10.400;2022-08-19T09:26:08;19.30;99.90
935;DHT22;454;53.254;10.400;2022-08-19T09:28:35;19.30;99.90
935;DHT22;454;53.254;10.400;2022-08-19T09:31:02;19.30;99.90
935;DHT22;454;53.254;10.400;2022-08-19T09:33:30;19.30;99.90
935;DHT22;454;53.254;10.400;2022-08-19T09:36:06;19.40;99.90
935;DHT22;454;53.254;10.400;2022-08-19T09:38:33;19.40;99.90
935;DHT22;454;53.254;10.400;2022-08-19T09:41:04;19.40;99.90
935;DHT22;454;53.254;10.400;2022-08-19T09:43:31;19.50;99.90
935;DHT22;454;53.254;10.400;2022-08-19T09:45:58;19.50;99.90
935;DHT22;454;53.254;10.400;2022-08-19T09:48:26;19.50;99.90
935;DHT22;454;53.254;10.400;2022-08-19T09:50:54;19.50;99.90
935;DHT22;454;53.254;10.400;2022-08-19T09:53:20;19.50;99.90
935;DHT22;454;53.254;10.400;2022-08-19T09:55:48;19.60;99.90
935;DHT22;454;53.254;10.400;2022-08-19T09:58:15;19.60;99.90
935;DHT22;454;53.254;10.400;2022-08-19T10:00:42;19.70;99.90
935;DHT22;454;53.254;10.400;2022-08-19T10:03:09;19.70;99.90
935;DHT22;454;53.254;10.400;2022-08-19T10:05:36;19.70;99.90
935;DHT22;454;53.254;10.400;2022-08-19T10:08:19;19.70;99.90
935;DHT22;454;53.254;10.400;2022-08-19T10:10:46;19.70;99.90
935;DHT22;454;53.254;10.400;2022-08-19T10:13:16;19.70;99.90
935;DHT22;454;53.254;10.400;2022-08-19T10:15:43;19.70;99.90
935;DHT22;454;53.254;10.400;2022-08-19T10:18:10;19.70;99.90
935;DHT22;454;53.254;10.400;2022-08-19T10:20:37;19.70;99.90
935;DHT22;454;53.254;10.400;2022-08-19T10:23:04;19.80;99.90
935;DHT22;454;53.254;10.400;2022-08-19T10:25:33;19.80;99.90
935;DHT22;454;53.254;10.400;2022-08-19T10:28:00;19.90;99.90
935;DHT22;454;53.254;10.400;2022-08-19T10:30:27;19.90;99.90
935;DHT22;454;53.254;10.400;2022-08-19T10:32:54;19.90;99.90
935;DHT22;454;53.254;10.400;2022-08-19T10:35:21;20.00;99.90
935;DHT22;454;53.254;10.400;2022-08-19T10:37:48;20.10;99.90
935;DHT22;454;53.254;10.400;2022-08-19T10:40:15;20.20;99.90
935;DHT22;454;53.254;10.400;2022-08-19T10:42:43;20.20;99.90
935;DHT22;454;53.254;10.400;2022-08-19T10:45:10;20.30;99.90
935;DHT22;454;53.254;10.400;2022-08-19T10:47:37;20.40;99.90
935;DHT22;454;53.254;10.400;2022-08-19T10:50:05;20.40;99.90
935;DHT22;454;53.254;10.400;2022-08-19T10:52:50;20.40;99.90
935;DHT22;454;53.254;10.400;2022-08-19T10:55:19;20.40;99.90
935;DHT22;454;53.254;10.400;2022-08-19T10:58:10;20.50;99.90
935;DHT22;454;53.254;10.400;2022-08-19T11:00:37;20.50;99.90
935;DHT22;454;53.254;10.400;2022-08-19T11:03:06;20.50;99.90
935;DHT22;454;53.254;10.400;2022-08-19T11:05:32;20.50;99.90
935;DHT22;454;53.254;10.400;2022-08-19T11:07:59;20.60;99.90
935;DHT22;454;53.254;10.400;2022-08-19T11:10:26;20.60;99.90
935;DHT22;454;53.254;10.400;2022-08-19T11:12:52;20.50;99.90
935;DHT22;454;53.254;10.400;2022-08-19T11:15:22;20.50;99.90
935;DHT22;454;53.254;10.400;2022-08-19T11:17:51;20.40;99.90
935;DHT22;454;53.254;10.400;2022-08-19T11:20:19;20.50;99.90
935;DHT22;454;53.254;10.400;2022-08-19T11:22:46;20.50;99.90
935;DHT22;454;53.254;10.400;2022-08-19T11:25:13;20.60;99.90
935;DHT22;454;53.254;10.400;2022-08-19T11:27:41;20.70;99.90
935;DHT22;454;53.254;10.400;2022-08-19T11:30:10;20.70;99.90
935;DHT22;454;53.254;10.400;2022-08-19T11:32:38;20.70;99.90
935;DHT22;454;53.254;10.400;2022-08-19T11:35:06;20.90;99.90
935;DHT22;454;53.254;10.400;2022-08-19T11:37:33;20.90;99.90
935;DHT22;454;53.254;10.400;2022-08-19T11:40:03;21.10;99.90
935;DHT22;454;53.254;10.400;2022-08-19T11:42:30;21.10;99.90
935;DHT22;454;53.254;10.400;2022-08-19T11:45:14;21.10;99.90
935;DHT22;454;53.254;10.400;2022-08-19T11:47:42;21.10;99.90
935;DHT22;454;53.254;10.400;2022-08-19T11:50:09;21.20;99.90
935;DHT22;454;53.254;10.400;2022-08-19T11:52:36;21.30;99.90
935;DHT22;454;53.254;10.400;2022-08-19T11:55:03;21.30;99.90
935;DHT22;454;53.254;10.400;2022-08-19T11:57:31;21.20;99.90
935;DHT22;454;53.254;10.400;2022-08-19T11:59:57;21.20;99.90
935;DHT22;454;53.254;10.400;2022-08-19T12:02:24;21.20;99.90
935;DHT22;454;53.254;10.400;2022-08-19T12:04:52;21.30;99.90
935;DHT22;454;53.254;10.400;2022-08-19T12:07:19;21.30;99.90
935;DHT22;454;53.254;10.400;2022-08-19T12:09:46;21.40;99.90
935;DHT22;454;53.254;10.400;2022-08-19T12:12:12;21.50;99.90
935;DHT22;454;53.254;10.400;2022-08-19T12:14:39;21.50;99.90
935;DHT22;454;53.254;10.400;2022-08-19T12:17:06;21.40;99.90
935;DHT22;454;53.254;10.400;2022-08-19T12:19:36;21.30;99.90
935;DHT22;454;53.254;10.400;2022-08-19T12:22:04;21.30;99.90
935;DHT22;454;53.254;10.400;2022-08-19T12:24:32;21.50;99.90
935;DHT22;454;53.254;10.400;2022-08-19T12:27:00;21.60;99.90
935;DHT22;454;53.254;10.400;2022-08-19T12:29:27;21.60;99.90
935;DHT22;454;53.254;10.400;2022-08-19T12:31:55;21.70;99.90
935;DHT22;454;53.254;10.400;2022-08-19T12:34:26;21.60;99.90
935;DHT22;454;53.254;10.400;2022-08-19T12:36:55;21.60;99.90
935;DHT22;454;53.254;10.400;2022-08-19T12:39:23;21.70;99.90
935;DHT22;454;53.254;10.400;2022-08-19T12:41:51;21.80;99.90
935;DHT22;454;53.254;10.400;2022-08-19T12:44:18;21.80;99.90
935;DHT22;454;53.254;10.400;2022-08-19T12:46:46;21.90;99.90
935;DHT22;454;53.254;10.400;2022-08-19T12:49:14;22.00;99.90
935;DHT22;454;53.254;10.400;2022-08-19T12:51:42;21.90;99.90
935;DHT22;454;53.254;10.400;2022-08-19T12:54:09;21.90;99.90
935;DHT22;454;53.254;10.400;2022-08-19T12:56:37;21.90;99.90
935;DHT22;454;53.254;10.400;2022-08-19T12:59:04;21.90;99.90
935;DHT22;454;53.254;10.400;2022-08-19T13:01:33;21.90;99.90
935;DHT22;454;53.254;10.400;2022-08-19T13:04:00;21.90;99.90
935;DHT22;454;53.254;10.400;2022-08-19T13:06:26;22.00;99.90
935;DHT22;454;53.254;10.400;2022-08-19T13:08:54;22.10;99.90
935;DHT22;454;53.254;10.400;2022-08-19T13:11:21;22.10;99.90
935;DHT22;454;53.254;10.400;2022-08-19T13:13:52;22.30;99.90
935;DHT22;454;53.254;10.400;2022-08-19T13:16:20;22.60;99.90
935;DHT22;454;53.254;10.400;2022-08-19T13:18:47;22.60;99.90
935;DHT22;454;53.254;10.400;2022-08-19T13:21:18;22.60;99.90
935;DHT22;454;53.254;10.400;2022-08-19T13:23:46;22.70;99.90
935;DHT22;454;53.254;10.400;2022-08-19T13:26:13;22.80;99.90
935;DHT22;454;53.254;10.400;2022-08-19T13:28:41;22.80;99.90
935;DHT22;454;53.254;10.400;2022-08-19T13:31:29;22.80;99.90
935;DHT22;454;53.254;10.400;2022-08-19T13:34:15;22.80;99.90
935;DHT22;454;53.254;10.400;2022-08-19T13:36:42;22.80;99.90
935;DHT22;454;53.254;10.400;2022-08-19T13:39:09;22.90;99.90
935;DHT22;454;53.254;10.400;2022-08-19T13:41:37;22.90;99.90
935;DHT22;454;53.254;10.400;2022-08-19T13:44:04;23.00;99.90
935;DHT22;454;53.254;10.400;2022-08-19T13:46:33;23.10;99.90
935;DHT22;454;53.254;10.400;2022-08-19T13:49:00;23.10;99.90
935;DHT22;454;53.254;10.400;2022-08-19T13:51:27;23.10;99.90
935;DHT22;454;53.254;10.400;2022-08-19T13:53:54;23.20;99.90
935;DHT22;454;53.254;10.400;2022-08-19T13:56:20;23.30;99.90
935;DHT22;454;53.254;10.400;2022-08-19T13:58:47;23.40;99.90
935;DHT22;454;53.254;10.400;2022-08-19T14:01:19;23.60;99.90
935;DHT22;454;53.254;10.400;2022-08-19T14:03:48;23.70;99.90
935;DHT22;454;53.254;10.400;2022-08-19T14:06:15;23.80;99.90
935;DHT22;454;53.254;10.400;2022-08-19T14:08:42;23.90;99.90
935;DHT22;454;53.254;10.400;2022-08-19T14:11:09;24.00;99.90
935;DHT22;454;53.254;10.400;2022-08-19T14:13:36;23.90;99.90
935;DHT22;454;53.254;10.400;2022-08-19T14:16:07;23.90;99.90
935;DHT22;454;53.254;10.400;2022-08-19T14:18:34;23.70;99.90
935;DHT22;454;53.254;10.400;2022-08-19T14:21:03;23.70;99.90
935;DHT22;454;53.254;10.400;2022-08-19T14:23:30;23.60;99.90
935;DHT22;454;53.254;10.400;2022-08-19T14:26:03;23.60;99.90
935;DHT22;454;53.254;10.400;2022-08-19T14:28:30;23.60;99.90
935;DHT22;454;53.254;10.400;2022-08-19T14:30:57;23.60;99.90
935;DHT22;454;53.254;10.400;2022-08-19T14:33:23;23.60;99.90
935;DHT22;454;53.254;10.400;2022-08-19T14:35:50;23.60;99.90
935;DHT22;454;53.254;10.400;2022-08-19T14:38:19;23.70;99.90
935;DHT22;454;53.254;10.400;2022-08-19T14:40:46;23.70;99.90
935;DHT22;454;53.254;10.400;2022-08-19T14:43:14;23.70;99.90
935;DHT22;454;53.254;10.400;2022-08-19T14:45:43;23.80;99.90
935;DHT22;454;53.254;10.400;2022-08-19T14:48:10;23.90;99.90
935;DHT22;454;53.254;10.400;2022-08-19T14:50:38;24.00;99.90
935;DHT22;454;53.254;10.400;2022-08-19T14:53:07;23.90;99.90
935;DHT22;454;53.254;10.400;2022-08-19T14:55:36;23.90;99.90
935;DHT22;454;53.254;10.400;2022-08-19T14:58:02;23.80;99.90
935;DHT22;454;53.254;10.400;2022-08-19T15:00:29;23.80;99.90
935;DHT22;454;53.254;10.400;2022-08-19T15:02:56;23.80;99.90
935;DHT22;454;53.254;10.400;2022-08-19T15:05:24;23.70;99.90
935;DHT22;454;53.254;10.400;2022-08-19T15:07:52;23.70;99.90
935;DHT22;454;53.254;10.400;2022-08-19T15:10:22;23.60;99.90
935;DHT22;454;53.254;10.400;2022-08-19T15:12:51;23.70;99.90
935;DHT22;454;53.254;10.400;2022-08-19T15:15:18;23.70;99.90
935;DHT22;454;53.254;10.400;2022-08-19T15:17:46;23.80;99.90
935;DHT22;454;53.254;10.400;2022-08-19T15:20:16;23.70;99.90
935;DHT22;454;53.254;10.400;2022-08-19T15:22:43;23.70;99.90
935;DHT22;454;53.254;10.400;2022-08-19T15:25:12;23.70;99.90
935;DHT22;454;53.254;10.400;2022-08-19T15:27:39;23.70;99.90
935;DHT22;454;53.254;10.400;2022-08-19T15:30:09;23.70;99.90
935;DHT22;454;53.254;10.400;2022-08-19T15:32:38;23.80;99.90
935;DHT22;454;53.254;10.400;2022-08-19T15:35:06;23.90;99.90
935;DHT22;454;53.254;10.400;2022-08-19T15:37:33;23.80;99.90
935;DHT22;454;53.254;10.400;2022-08-19T15:40:00;23.80;99.90
935;DHT22;454;53.254;10.400;2022-08-19T15:42:26;23.80;99.90
935;DHT22;454;53.254;10.400;2022-08-19T15:44:53;23.80;99.90
935;DHT22;454;53.254;10.400;2022-08-19T15:47:22;23.90;99.90
935;DHT22;454;53.254;10.400;2022-08-19T15:49:49;23.80;99.90
935;DHT22;454;53.254;10.400;2022-08-19T15:52:19;23.80;99.90
935;DHT22;454;53.254;10.400;2022-08-19T15:54:46;23.90;99.90
935;DHT22;454;53.254;10.400;2022-08-19T15:57:13;23.90;99.90
935;DHT22;454;53.254;10.400;2022-08-19T15:59:57;23.90;99.90
935;DHT22;454;53.254;10.400;2022-08-19T16:02:42;23.70;99.90
935;DHT22;454;53.254;10.400;2022-08-19T16:05:26;23.70;99.90
935;DHT22;454;53.254;10.400;2022-08-19T16:08:11;23.70;99.90
935;DHT22;454;53.254;10.400;2022-08-19T16:10:38;23.60;99.90
935;DHT22;454;53.254;10.400;2022-08-19T16:13:05;23.70;99.90
935;DHT22;454;53.254;10.400;2022-08-19T16:15:32;23.70;99.90
935;DHT22;454;53.254;10.400;2022-08-19T16:18:00;23.70;99.90
935;DHT22;454;53.254;10.400;2022-08-19T16:20:29;23.70;99.90
935;DHT22;454;53.254;10.400;2022-08-19T16:22:56;23.70;99.90
935;DHT22;454;53.254;10.400;2022-08-19T16:25:24;23.70;99.90
935;DHT22;454;53.254;10.400;2022-08-19T16:27:54;23.80;99.90
935;DHT22;454;53.254;10.400;2022-08-19T16:30:21;23.70;99.90
935;DHT22;454;53.254;10.400;2022-08-19T16:32:47;23.70;99.90
935;DHT22;454;53.254;10.400;2022-08-19T16:35:16;23.70;99.90
935;DHT22;454;53.254;10.400;2022-08-19T16:37:42;23.70;99.90
935;DHT22;454;53.254;10.400;2022-08-19T16:40:10;23.80;99.90
935;DHT22;454;53.254;10.400;2022-08-19T16:42:37;23.90;99.90
935;DHT22;454;53.254;10.400;2022-08-19T16:45:05;23.80;99.90
935;DHT22;454;53.254;10.400;2022-08-19T16:47:33;23.80;99.90
935;DHT22;454;53.254;10.400;2022-08-19T16:50:00;23.70;99.90
935;DHT22;454;53.254;10.400;2022-08-19T16:52:28;23.60;99.90
935;DHT22;454;53.254;10.400;2022-08-19T16:54:56;23.60;99.90
935;DHT22;454;53.254;10.400;2022-08-19T16:57:23;23.50;99.90
935;DHT22;454;53.254;10.400;2022-08-19T16:59:50;23.60;99.90
935;DHT22;454;53.254;10.400;2022-08-19T17:02:18;23.50;99.90
935;DHT22;454;53.254;10.400;2022-08-19T17:04:45;23.50;99.90
935;DHT22;454;53.254;10.400;2022-08-19T17:07:14;23.50;99.90
935;DHT22;454;53.254;10.400;2022-08-19T17:09:42;23.40;99.90
935;DHT22;454;53.254;10.400;2022-08-19T17:12:09;23.40;99.90
935;DHT22;454;53.254;10.400;2022-08-19T17:14:36;23.40;99.90
935;DHT22;454;53.254;10.400;2022-08-19T17:17:03;23.30;99.90
935;DHT22;454;53.254;10.400;2022-08-19T17:19:29;23.20;99.90
935;DHT22;454;53.254;10.400;2022-08-19T17:21:56;23.20;99.90
935;DHT22;454;53.254;10.400;2022-08-19T17:24:23;23.10;99.90
935;DHT22;454;53.254;10.400;2022-08-19T17:26:51;23.10;99.90
935;DHT22;454;53.254;10.400;2022-08-19T17:29:17;23.10;99.90
935;DHT22;454;53.254;10.400;2022-08-19T17:31:44;23.00;99.90
935;DHT22;454;53.254;10.400;2022-08-19T17:34:11;23.00;99.90
935;DHT22;454;53.254;10.400;2022-08-19T17:36:37;23.00;99.90
935;DHT22;454;53.254;10.400;2022-08-19T17:39:04;23.00;99.90
935;DHT22;454;53.254;10.400;2022-08-19T17:41:31;23.00;99.90
935;DHT22;454;53.254;10.400;2022-08-19T17:44:01;22.90;99.90
935;DHT22;454;53.254;10.400;2022-08-19T17:46:28;22.90;99.90
935;DHT22;454;53.254;10.400;2022-08-19T17:48:55;22.90;99.90
935;DHT22;454;53.254;10.400;2022-08-19T17:51:25;22.80;99.90
935;DHT22;454;53.254;10.400;2022-08-19T17:54:05;22.80;99.90
935;DHT22;454;53.254;10.400;2022-08-19T17:56:32;22.80;99.90
935;DHT22;454;53.254;10.400;2022-08-19T17:59:00;22.70;99.90
935;DHT22;454;53.254;10.400;2022-08-19T18:01:27;22.70;99.90
935;DHT22;454;53.254;10.400;2022-08-19T18:03:54;22.70;99.90
935;DHT22;454;53.254;10.400;2022-08-19T18:06:21;22.60;99.90
935;DHT22;454;53.254;10.400;2022-08-19T18:08:47;22.50;99.90
935;DHT22;454;53.254;10.400;2022-08-19T18:11:15;22.50;99.90
935;DHT22;454;53.254;10.400;2022-08-19T18:13:42;22.50;99.90
935;DHT22;454;53.254;10.400;2022-08-19T18:16:10;22.40;99.90
935;DHT22;454;53.254;10.400;2022-08-19T18:18:38;22.40;99.90
935;DHT22;454;53.254;10.400;2022-08-19T18:21:06;22.40;99.90
935;DHT22;454;53.254;10.400;2022-08-19T18:23:33;22.30;99.90
935;DHT22;454;53.254;10.400;2022-08-19T18:26:00;22.20;99.90
935;DHT22;454;53.254;10.400;2022-08-19T18:28:27;22.20;99.90
935;DHT22;454;53.254;10.400;2022-08-19T18:30:54;22.10;99.90
935;DHT22;454;53.254;10.400;2022-08-19T18:33:22;22.00;99.90
935;DHT22;454;53.254;10.400;2022-08-19T18:35:50;21.90;99.90
935;DHT22;454;53.254;10.400;2022-08-19T18:38:19;21.90;99.90
935;DHT22;454;53.254;10.400;2022-08-19T18:41:03;21.80;99.90
935;DHT22;454;53.254;10.400;2022-08-19T18:43:48;21.80;99.90
935;DHT22;454;53.254;10.400;2022-08-19T18:46:32;21.70;99.90
935;DHT22;454;53.254;10.400;2022-08-19T18:49:22;21.60;99.90
935;DHT22;454;53.254;10.400;2022-08-19T18:51:49;21.50;99.90
935;DHT22;454;53.254;10.400;2022-08-19T18:54:16;21.50;99.90
935;DHT22;454;53.254;10.400;2022-08-19T18:56:44;21.40;99.90
935;DHT22;454;53.254;10.400;2022-08-19T18:59:12;21.30;99.90
935;DHT22;454;53.254;10.400;2022-08-19T19:01:43;21.30;99.90
935;DHT22;454;53.254;10.400;2022-08-19T19:04:19;21.20;99.90
935;DHT22;454;53.254;10.400;2022-08-19T19:06:46;21.20;99.90
935;DHT22;454;53.254;10.400;2022-08-19T19:09:16;21.10;99.90
935;DHT22;454;53.254;10.400;2022-08-19T19:11:45;21.10;99.90
935;DHT22;454;53.254;10.400;2022-08-19T19:14:15;21.00;99.90
935;DHT22;454;53.254;10.400;2022-08-19T19:16:42;20.90;99.90
935;DHT22;454;53.254;10.400;2022-08-19T19:19:10;20.90;99.90
935;DHT22;454;53.254;10.400;2022-08-19T19:21:40;20.80;99.90
935;DHT22;454;53.254;10.400;2022-08-19T19:24:13;20.80;99.90
935;DHT22;454;53.254;10.400;2022-08-19T19:26:40;20.70;99.90
935;DHT22;454;53.254;10.400;2022-08-19T19:29:08;20.70;99.90
935;DHT22;454;53.254;10.400;2022-08-19T19:31:35;20.60;99.90
935;DHT22;454;53.254;10.400;2022-08-19T19:34:02;20.60;99.90
935;DHT22;454;53.254;10.400;2022-08-19T19:36:29;20.50;99.90
935;DHT22;454;53.254;10.400;2022-08-19T19:38:57;20.50;99.90
935;DHT22;454;53.254;10.400;2022-08-19T19:41:23;20.40;99.90
935;DHT22;454;53.254;10.400;2022-08-19T19:43:50;20.40;99.90
935;DHT22;454;53.254;10.400;2022-08-19T19:46:17;20.40;99.90
935;DHT22;454;53.254;10.400;2022-08-19T19:48:44;20.30;99.90
935;DHT22;454;53.254;10.400;2022-08-19T19:51:11;20.30;99.90
935;DHT22;454;53.254;10.400;2022-08-19T19:53:39;20.30;99.90
935;DHT22;454;53.254;10.400;2022-08-19T19:56:07;20.20;99.90
935;DHT22;454;53.254;10.400;2022-08-19T19:58:35;20.20;99.90
935;DHT22;454;53.254;10.400;2022-08-19T20:01:03;20.10;99.90
935;DHT22;454;53.254;10.400;2022-08-19T20:03:32;20.10;99.90
935;DHT22;454;53.254;10.400;2022-08-19T20:05:58;20.10;99.90
935;DHT22;454;53.254;10.400;2022-08-19T20:08:26;20.00;99.90
935;DHT22;454;53.254;10.400;2022-08-19T20:11:12;20.00;99.90
935;DHT22;454;53.254;10.400;2022-08-19T20:13:50;19.90;99.90
935;DHT22;454;53.254;10.400;2022-08-19T20:16:16;19.90;99.90
935;DHT22;454;53.254;10.400;2022-08-19T20:18:44;19.90;99.90
935;DHT22;454;53.254;10.400;2022-08-19T20:21:12;19.90;99.90
935;DHT22;454;53.254;10.400;2022-08-19T20:23:39;19.80;99.90
935;DHT22;454;53.254;10.400;2022-08-19T20:26:06;19.80;99.90
935;DHT22;454;53.254;10.400;2022-08-19T20:28:35;19.70;99.90